Карточка аэропорта UWOO

Внимание!
Информация на этой странице в стадии наполнения.
Если вы не увидели какой-то информации, или заметили неточность - пожалуйста сообщите нам!
Спасибо!
Команда XR-STAFF
Название аэропортаОренбург
Название аэропорта (англ.)Orenburg
Превышение387 ft. (118 m.)
Координаты51°48', 55°27'
Высота перехода700m
Эшелон переходаBy ATC
Коды ответчика2440-2443
Зона ОрВДСамара РПИ (UWWW)
Данные METARUWOO 160700Z 22009G14MPS 9999 BKN040CB 17/08 Q1002 R26/110065 TEMPO VRB19MPS TS SQ RMK QFE741/0989
Проноз погоды (TAF)UWOO 160447Z 1606/1706 22008G16MPS 6000 BKN016CB TX18/1610Z TN08/1701Z TEMPO 1606/1620 24012G20MPS 2000 TSRA BKN004 OVC010CB TEMPO 1620/1703 21005G10MPS
NOTAMshow/hide NOTAM
AWOS   TABLE

Информация о ВПП

ВПП Длина ВПП (м.) Покрытие Курс ВПП Частота ILS
082501Асфальтобетон79109
262501Асфальтобетон259109.3

Диспетчерские позиции

Позывной Наименование органа УВД Частота
UWOO_TWRОренбург- Вышка128.0
UWOO_R_APPОренбург - Круг120.400



Спутниковое изображение